Time;durP1;ratioP1;P1;durP2;ratioP2;P2;SDS_P1;SDS_P2;PMS_P1;PMS_P2;Temp;Humidity;BMP_temperature;BMP_pressure;BME280_temperature;BME280_humidity;BME280_pressure;Samples;Min_cycle;Max_cycle;Signal;HPM_P1;HPM_P2
2022/01/02 00:01:42;;;;;;;9.38;6.38;;;;;;;;;;5004831;28;90586;-72
2022/01/02 00:04:13;;;;;;;9.50;7.20;;;;;;;;;;5022911;28;88661;-72
2022/01/02 00:06:44;;;;;;;10.93;7.32;;;;;;;;;;5025581;28;88753;-72
2022/01/02 00:09:16;;;;;;;8.00;6.97;;;;;;;;;;5022892;28;89263;-73
2022/01/02 00:11:43;;;;;;;9.30;7.03;;;;;;;;;;5022922;28;87916;-72
2022/01/02 00:14:12;;;;;;;9.68;7.18;;;;;;;;;;5022652;28;89398;-72
2022/01/02 00:16:38;;;;;;;12.35;7.05;;;;;;;;;;5022427;28;89565;-72
2022/01/02 00:19:17;;;;;;;14.52;7.50;;;;;;;;;;5022950;28;88293;-72
2022/01/02 00:21:46;;;;;;;12.52;7.07;;;;;;;;;;5022661;28;88518;-72
2022/01/02 00:24:17;;;;;;;12.25;7.32;;;;;;;;;;5022605;28;89346;-72
2022/01/02 00:26:45;;;;;;;11.20;7.88;;;;;;;;;;5024955;28;88509;-72
2022/01/02 00:29:13;;;;;;;12.05;7.07;;;;;;;;;;5022559;28;88782;-72
2022/01/02 00:31:40;;;;;;;13.93;6.85;;;;;;;;;;5004043;28;89840;-72
2022/01/02 00:34:07;;;;;;;20.50;7.72;;;;;;;;;;5004999;28;89087;-72
2022/01/02 00:36:34;;;;;;;13.63;7.13;;;;;;;;;;5004403;28;92169;-72
2022/01/02 00:39:00;;;;;;;12.23;7.45;;;;;;;;;;5022303;28;88104;-72
2022/01/02 00:41:35;;;;;;;14.05;8.18;;;;;;;;;;5004338;28;90818;-72
2022/01/02 00:44:34;;;;;;;14.60;7.90;;;;;;;;;;5004694;28;89652;-73
2022/01/02 00:47:06;;;;;;;15.40;8.20;;;;;;;;;;4968014;28;88054;-72
2022/01/02 00:49:37;;;;;;;13.80;7.70;;;;;;;;;;5025004;28;88703;-72
2022/01/02 00:52:04;;;;;;;12.50;8.05;;;;;;;;;;5003864;28;88604;-72
2022/01/02 00:54:32;;;;;;;13.07;7.97;;;;;;;;;;5021751;28;89665;-72
2022/01/02 00:57:04;;;;;;;11.70;7.10;;;;;;;;;;5022436;28;88642;-73
2022/01/02 00:59:37;;;;;;;18.60;8.50;;;;;;;;;;5004197;28;89369;-73
2022/01/02 01:02:07;;;;;;;14.40;8.32;;;;;;;;;;5004037;28;91452;-73
2022/01/02 01:04:37;;;;;;;16.08;8.18;;;;;;;;;;5021977;28;89174;-73
2022/01/02 01:07:05;;;;;;;12.40;8.02;;;;;;;;;;5021665;28;88523;-73
2022/01/02 01:09:32;;;;;;;15.73;8.13;;;;;;;;;;5004094;28;91388;-73
2022/01/02 01:11:59;;;;;;;14.05;8.35;;;;;;;;;;5024755;28;89142;-73
2022/01/02 01:14:26;;;;;;;14.32;8.35;;;;;;;;;;5021799;28;89437;-73
2022/01/02 01:16:53;;;;;;;17.30;8.77;;;;;;;;;;5003075;28;92677;-73
2022/01/02 01:19:21;;;;;;;17.65;8.32;;;;;;;;;;5003940;28;91025;-73
2022/01/02 01:21:49;;;;;;;13.20;7.90;;;;;;;;;;5021367;28;88480;-73
2022/01/02 01:24:17;;;;;;;12.02;7.22;;;;;;;;;;5003929;28;90500;-72
2022/01/02 01:26:46;;;;;;;13.15;8.13;;;;;;;;;;5003547;28;91180;-73
2022/01/02 01:29:12;;;;;;;15.18;8.43;;;;;;;;;;5021775;28;88745;-73
2022/01/02 01:31:39;;;;;;;18.88;8.30;;;;;;;;;;5021565;28;89701;-73
2022/01/02 01:34:05;;;;;;;20.60;8.95;;;;;;;;;;5024694;28;88101;-72
2022/01/02 01:36:32;;;;;;;19.05;7.65;;;;;;;;;;5021365;28;89729;-72
2022/01/02 01:38:58;;;;;;;16.60;7.65;;;;;;;;;;4987035;28;92023;-73
2022/01/02 01:41:29;;;;;;;16.10;7.90;;;;;;;;;;5003006;28;91621;-74
2022/01/02 01:44:09;;;;;;;14.60;8.00;;;;;;;;;;5003498;28;91577;-73
2022/01/02 01:46:37;;;;;;;21.33;7.65;;;;;;;;;;5021039;28;87931;-73
2022/01/02 01:49:15;;;;;;;15.93;7.68;;;;;;;;;;5003311;28;90990;-73
2022/01/02 01:51:43;;;;;;;15.40;7.13;;;;;;;;;;5003329;28;92016;-73
2022/01/02 01:54:10;;;;;;;18.13;8.63;;;;;;;;;;5003493;28;90276;-73
2022/01/02 01:56:37;;;;;;;14.43;7.20;;;;;;;;;;5024274;28;88771;-74
2022/01/02 01:59:05;;;;;;;16.92;7.10;;;;;;;;;;5003671;28;91718;-73
2022/01/02 02:01:31;;;;;;;20.35;7.13;;;;;;;;;;5004715;28;90561;-74
2022/01/02 02:03:58;;;;;;;16.92;7.40;;;;;;;;;;5002964;28;91250;-74
2022/01/02 02:06:26;;;;;;;17.08;7.07;;;;;;;;;;5002650;28;91196;-73
2022/01/02 02:08:57;;;;;;;20.73;7.68;;;;;;;;;;5003134;28;92215;-74
2022/01/02 02:11:24;;;;;;;16.05;7.15;;;;;;;;;;5002877;28;91845;-74
2022/01/02 02:13:52;;;;;;;19.65;7.20;;;;;;;;;;5002479;28;91560;-73
2022/01/02 02:16:18;;;;;;;23.42;7.65;;;;;;;;;;5002833;28;91336;-74
2022/01/02 02:18:45;;;;;;;19.88;7.00;;;;;;;;;;5005914;28;91182;-73
2022/01/02 02:21:11;;;;;;;14.85;6.65;;;;;;;;;;5001907;28;91785;-73
2022/01/02 02:23:37;;;;;;;13.45;7.10;;;;;;;;;;5003291;28;90069;-73
2022/01/02 02:26:04;;;;;;;17.95;7.40;;;;;;;;;;5002635;28;89907;-73
2022/01/02 02:28:31;;;;;;;17.77;7.60;;;;;;;;;;5002335;28;91281;-74
2022/01/02 02:30:59;;;;;;;16.60;6.95;;;;;;;;;;5002349;28;91448;-74
2022/01/02 02:33:26;;;;;;;14.43;6.65;;;;;;;;;;5002993;28;90027;-73
2022/01/02 02:35:53;;;;;;;20.45;6.93;;;;;;;;;;5002721;28;91233;-74
2022/01/02 02:38:20;;;;;;;10.38;6.00;;;;;;;;;;5005475;28;91881;-73
2022/01/02 02:40:51;;;;;;;16.50;5.95;;;;;;;;;;5002387;28;91395;-74
2022/01/02 02:43:32;;;;;;;14.15;5.82;;;;;;;;;;5020189;28;89239;-72
2022/01/02 02:49:00;;;;;;;15.70;6.22;;;;;;;;;;5003122;28;91240;-73
2022/01/02 02:51:42;;;;;;;20.65;5.57;;;;;;;;;;4985332;28;91079;-73
2022/01/02 02:54:16;;;;;;;21.90;6.45;;;;;;;;;;5020324;28;88280;-72
2022/01/02 02:56:53;;;;;;;20.77;6.53;;;;;;;;;;5019881;28;88612;-73
2022/01/02 02:59:20;;;;;;;12.93;5.60;;;;;;;;;;5002386;28;91662;-72
2022/01/02 03:01:47;;;;;;;14.65;5.95;;;;;;;;;;5004707;28;90960;-73
2022/01/02 03:04:13;;;;;;;14.20;6.90;;;;;;;;;;5002102;28;91329;-73
2022/01/02 03:06:40;;;;;;;13.90;5.85;;;;;;;;;;5002310;28;90805;-72
2022/01/02 03:09:10;;;;;;;14.40;5.53;;;;;;;;;;5002182;28;89804;-73
2022/01/02 03:11:40;;;;;;;15.60;5.65;;;;;;;;;;5001985;28;90945;-72
2022/01/02 03:14:07;;;;;;;16.90;5.13;;;;;;;;;;5002561;28;90066;-73
2022/01/02 03:16:34;;;;;;;11.93;5.05;;;;;;;;;;5019247;28;88552;-73
2022/01/02 03:19:02;;;;;;;14.98;5.05;;;;;;;;;;5002247;28;90839;-73
2022/01/02 03:21:28;;;;;;;16.35;5.68;;;;;;;;;;5001375;28;91459;-72
2022/01/02 03:23:55;;;;;;;15.93;5.38;;;;;;;;;;5022904;28;89730;-73
2022/01/02 03:26:21;;;;;;;14.70;4.88;;;;;;;;;;5019820;28;87954;-73
2022/01/02 03:28:49;;;;;;;13.30;4.50;;;;;;;;;;5001824;28;90736;-73
2022/01/02 03:31:15;;;;;;;18.95;4.80;;;;;;;;;;5001761;28;91000;-74
2022/01/02 03:33:42;;;;;;;11.10;4.72;;;;;;;;;;5004935;28;91216;-73
2022/01/02 03:36:09;;;;;;;19.73;4.90;;;;;;;;;;5023590;28;89087;-73
2022/01/02 03:38:36;;;;;;;11.52;4.78;;;;;;;;;;5006025;28;90426;-73
2022/01/02 03:41:05;;;;;;;20.45;4.88;;;;;;;;;;5023302;28;88052;-73
2022/01/02 03:43:32;;;;;;;19.10;4.95;;;;;;;;;;5022621;28;88984;-73
2022/01/02 03:46:02;;;;;;;11.32;4.57;;;;;;;;;;5007740;28;92461;-73
2022/01/02 03:48:30;;;;;;;13.20;5.30;;;;;;;;;;5005323;28;91636;-72
2022/01/02 03:51:02;;;;;;;16.98;5.07;;;;;;;;;;5005090;28;91671;-72
2022/01/02 03:53:29;;;;;;;14.23;4.80;;;;;;;;;;5005296;28;90898;-72
2022/01/02 03:55:55;;;;;;;19.73;5.40;;;;;;;;;;5005054;28;91610;-73
2022/01/02 03:58:21;;;;;;;11.90;5.20;;;;;;;;;;5005349;28;90056;-72
2022/01/02 04:00:48;;;;;;;14.95;5.25;;;;;;;;;;5005155;28;91569;-72
2022/01/02 04:03:15;;;;;;;15.15;4.75;;;;;;;;;;5005239;28;91483;-72
2022/01/02 04:05:43;;;;;;;16.08;4.32;;;;;;;;;;5005105;28;90214;-73
2022/01/02 04:08:09;;;;;;;12.13;4.30;;;;;;;;;;5007985;28;90814;-73
2022/01/02 04:10:36;;;;;;;14.93;4.70;;;;;;;;;;5022137;28;88670;-73
2022/01/02 04:13:02;;;;;;;14.13;4.43;;;;;;;;;;5022760;28;88143;-72
2022/01/02 04:15:30;;;;;;;13.05;4.38;;;;;;;;;;5004492;28;90157;-72
2022/01/02 04:17:57;;;;;;;14.57;4.70;;;;;;;;;;5004857;28;90221;-72
2022/01/02 04:20:23;;;;;;;16.30;4.65;;;;;;;;;;4988252;28;91808;-72
2022/01/02 04:22:50;;;;;;;10.52;4.35;;;;;;;;;;5004780;28;90716;-73
2022/01/02 04:25:18;;;;;;;14.10;4.50;;;;;;;;;;5004114;28;91339;-72
2022/01/02 04:27:44;;;;;;;13.50;4.88;;;;;;;;;;5005200;28;90784;-72
2022/01/02 04:30:11;;;;;;;16.33;5.10;;;;;;;;;;5007427;28;90045;-72
2022/01/02 04:32:40;;;;;;;17.02;4.93;;;;;;;;;;5004697;28;89155;-72
2022/01/02 04:35:06;;;;;;;14.35;4.30;;;;;;;;;;5004222;28;91155;-72
2022/01/02 04:37:35;;;;;;;10.73;4.68;;;;;;;;;;5004453;28;90902;-72
2022/01/02 04:40:02;;;;;;;10.50;4.50;;;;;;;;;;5004191;28;90650;-73
2022/01/02 04:42:29;;;;;;;15.15;4.65;;;;;;;;;;5004549;28;91281;-72
2022/01/02 04:44:56;;;;;;;11.40;4.35;;;;;;;;;;5003815;28;91664;-72
2022/01/02 04:47:22;;;;;;;9.10;4.10;;;;;;;;;;5004497;28;89225;-72
2022/01/02 04:49:49;;;;;;;13.15;4.68;;;;;;;;;;5007100;28;91052;-72
2022/01/02 04:52:16;;;;;;;13.52;5.15;;;;;;;;;;5022566;28;87940;-73
2022/01/02 04:54:43;;;;;;;12.40;4.85;;;;;;;;;;5004188;28;90117;-72
2022/01/02 04:57:11;;;;;;;15.73;5.10;;;;;;;;;;5004220;28;90270;-73
2022/01/02 04:59:38;;;;;;;14.10;5.40;;;;;;;;;;5004416;28;88800;-72
2022/01/02 05:02:05;;;;;;;16.70;5.28;;;;;;;;;;4987575;28;92106;-73
2022/01/02 05:04:32;;;;;;;10.90;5.10;;;;;;;;;;5022018;28;88584;-73
2022/01/02 05:06:58;;;;;;;12.07;4.93;;;;;;;;;;5003663;28;90253;-73
2022/01/02 05:09:26;;;;;;;16.15;5.32;;;;;;;;;;5004138;28;90709;-73
2022/01/02 05:11:53;;;;;;;13.63;5.15;;;;;;;;;;5007106;28;91231;-72
2022/01/02 05:14:21;;;;;;;14.18;4.95;;;;;;;;;;5003798;28;91680;-72
2022/01/02 05:16:48;;;;;;;13.68;5.15;;;;;;;;;;5004302;28;90617;-72
2022/01/02 05:19:14;;;;;;;16.67;5.30;;;;;;;;;;5003873;28;90392;-73
2022/01/02 05:21:41;;;;;;;9.85;4.97;;;;;;;;;;5003639;28;90043;-73
2022/01/02 05:24:07;;;;;;;15.05;4.95;;;;;;;;;;5003114;28;92067;-73
2022/01/02 05:26:34;;;;;;;15.13;5.40;;;;;;;;;;5021815;28;88046;-74
2022/01/02 05:29:00;;;;;;;6.97;4.55;;;;;;;;;;5021959;28;88029;-73
2022/01/02 05:31:26;;;;;;;10.13;5.00;;;;;;;;;;5003792;28;91725;-73
2022/01/02 05:33:53;;;;;;;11.63;5.05;;;;;;;;;;5024572;28;88168;-73
2022/01/02 05:36:19;;;;;;;14.50;5.45;;;;;;;;;;5021253;28;89331;-72
2022/01/02 05:38:46;;;;;;;19.08;4.93;;;;;;;;;;5003436;28;90380;-73
2022/01/02 05:41:13;;;;;;;14.95;5.25;;;;;;;;;;5004096;28;91654;-73
2022/01/02 05:43:40;;;;;;;12.75;5.10;;;;;;;;;;5003439;28;91190;-72
2022/01/02 05:46:07;;;;;;;8.50;4.95;;;;;;;;;;5003494;28;90734;-73
2022/01/02 05:48:34;;;;;;;12.88;5.00;;;;;;;;;;5002710;28;90732;-72
2022/01/02 05:51:01;;;;;;;12.57;5.03;;;;;;;;;;5003203;28;91421;-73
2022/01/02 05:53:28;;;;;;;11.75;5.22;;;;;;;;;;5003329;28;90712;-73
2022/01/02 05:55:56;;;;;;;9.63;5.05;;;;;;;;;;5005103;28;90998;-73
2022/01/02 05:58:23;;;;;;;17.52;5.85;;;;;;;;;;5003225;28;90117;-73
2022/01/02 06:00:50;;;;;;;10.82;5.03;;;;;;;;;;5003116;28;91620;-73
2022/01/02 06:03:18;;;;;;;6.88;4.40;;;;;;;;;;5002662;28;90801;-73
2022/01/02 06:05:45;;;;;;;10.25;5.40;;;;;;;;;;5003562;28;91229;-73
2022/01/02 06:08:12;;;;;;;14.48;4.82;;;;;;;;;;5003290;28;90467;-74
2022/01/02 06:10:39;;;;;;;14.73;5.15;;;;;;;;;;5002942;28;91665;-74
2022/01/02 06:13:05;;;;;;;12.32;5.55;;;;;;;;;;5002460;28;89573;-73
2022/01/02 06:15:32;;;;;;;10.18;4.88;;;;;;;;;;5002685;28;91696;-74
2022/01/02 06:17:58;;;;;;;11.18;5.15;;;;;;;;;;5005448;28;92077;-73
2022/01/02 06:20:25;;;;;;;13.43;5.03;;;;;;;;;;5002930;28;90287;-74
2022/01/02 06:22:53;;;;;;;12.45;5.10;;;;;;;;;;5002759;28;91684;-74
2022/01/02 06:25:20;;;;;;;12.07;5.15;;;;;;;;;;5002863;28;89250;-74
2022/01/02 06:27:47;;;;;;;12.30;4.40;;;;;;;;;;5019830;28;89226;-74
2022/01/02 06:30:13;;;;;;;8.75;4.60;;;;;;;;;;5001375;28;90344;-74
2022/01/02 06:32:40;;;;;;;8.57;5.22;;;;;;;;;;5002652;28;90370;-73
2022/01/02 06:35:07;;;;;;;9.50;4.80;;;;;;;;;;5002868;28;92262;-72
2022/01/02 06:37:34;;;;;;;11.38;4.72;;;;;;;;;;5002402;28;92115;-73
2022/01/02 06:40:01;;;;;;;11.13;4.80;;;;;;;;;;5004860;28;88001;-72
2022/01/02 06:42:27;;;;;;;9.70;4.95;;;;;;;;;;5020474;28;88412;-72
2022/01/02 06:44:54;;;;;;;9.48;5.00;;;;;;;;;;5002775;28;91309;-73
2022/01/02 06:47:20;;;;;;;12.02;4.78;;;;;;;;;;5020538;28;88802;-73
2022/01/02 06:49:49;;;;;;;9.05;5.30;;;;;;;;;;5002646;28;92214;-73
2022/01/02 06:52:15;;;;;;;9.50;4.68;;;;;;;;;;5002473;28;90245;-73
2022/01/02 06:54:42;;;;;;;14.02;4.95;;;;;;;;;;5002582;28;91737;-73
2022/01/02 06:57:08;;;;;;;13.30;4.90;;;;;;;;;;5020387;28;88029;-73
2022/01/02 06:59:34;;;;;;;12.63;5.07;;;;;;;;;;5023504;28;88528;-72
2022/01/02 07:02:01;;;;;;;11.57;4.63;;;;;;;;;;5001918;28;92283;-74
2022/01/02 07:04:28;;;;;;;16.40;5.32;;;;;;;;;;5002202;28;90507;-73
2022/01/02 07:06:55;;;;;;;10.45;4.82;;;;;;;;;;5001662;28;90198;-73
2022/01/02 07:09:22;;;;;;;10.38;4.70;;;;;;;;;;5001987;28;91078;-73
2022/01/02 07:11:48;;;;;;;8.27;4.72;;;;;;;;;;5020598;28;87771;-73
2022/01/02 07:14:14;;;;;;;8.75;4.45;;;;;;;;;;5020018;28;89309;-72
2022/01/02 07:16:41;;;;;;;9.00;4.65;;;;;;;;;;5019506;28;89293;-73
2022/01/02 07:19:08;;;;;;;9.88;4.90;;;;;;;;;;5020687;28;88807;-73
2022/01/02 07:21:34;;;;;;;10.40;4.47;;;;;;;;;;5022600;28;88778;-74
2022/01/02 07:24:01;;;;;;;13.73;5.18;;;;;;;;;;5020136;28;88195;-72
2022/01/02 07:26:27;;;;;;;12.13;4.65;;;;;;;;;;5019537;28;89049;-73
2022/01/02 07:28:53;;;;;;;15.55;4.05;;;;;;;;;;5019875;28;89567;-74
2022/01/02 07:31:20;;;;;;;12.57;4.65;;;;;;;;;;5020046;28;88140;-73
2022/01/02 07:33:46;;;;;;;8.38;4.20;;;;;;;;;;5019793;28;88848;-73
2022/01/02 07:36:13;;;;;;;11.13;4.90;;;;;;;;;;5019422;28;89293;-73
2022/01/02 07:38:39;;;;;;;13.10;4.65;;;;;;;;;;5019706;28;87794;-73
2022/01/02 07:41:05;;;;;;;11.63;4.30;;;;;;;;;;5019982;28;89142;-73
2022/01/02 07:43:32;;;;;;;9.50;4.47;;;;;;;;;;5023069;28;88139;-73
2022/01/02 07:45:58;;;;;;;12.20;4.82;;;;;;;;;;5019907;28;88314;-73
2022/01/02 07:48:25;;;;;;;9.10;4.40;;;;;;;;;;5019715;28;88804;-72
2022/01/02 07:50:51;;;;;;;12.30;4.63;;;;;;;;;;5018457;28;88719;-71
2022/01/02 07:53:17;;;;;;;10.60;4.65;;;;;;;;;;5019652;28;89924;-71
2022/01/02 07:55:44;;;;;;;10.50;4.60;;;;;;;;;;5019545;28;89198;-70
2022/01/02 07:58:11;;;;;;;13.98;4.95;;;;;;;;;;5019862;28;88134;-71
2022/01/02 08:00:38;;;;;;;12.07;5.00;;;;;;;;;;5019503;28;88961;-71
2022/01/02 08:03:04;;;;;;;15.13;5.15;;;;;;;;;;5019402;28;88144;-71
2022/01/02 08:05:36;;;;;;;11.13;4.25;;;;;;;;;;5022148;28;88666;-71
2022/01/02 08:08:02;;;;;;;6.65;4.72;;;;;;;;;;5020010;28;88375;-72
2022/01/02 08:10:28;;;;;;;12.68;5.35;;;;;;;;;;5019382;28;88151;-72
2022/01/02 08:12:55;;;;;;;10.93;4.25;;;;;;;;;;5019509;28;89034;-72
2022/01/02 08:15:21;;;;;;;10.07;4.22;;;;;;;;;;5018294;28;89950;-72
2022/01/02 08:17:48;;;;;;;10.32;4.90;;;;;;;;;;5019094;28;88179;-72
2022/01/02 08:20:14;;;;;;;7.68;4.13;;;;;;;;;;5021122;28;89162;-72
2022/01/02 08:22:40;;;;;;;12.48;4.47;;;;;;;;;;5022297;28;89164;-74
2022/01/02 08:25:07;;;;;;;8.32;4.50;;;;;;;;;;5022290;28;88078;-72
2022/01/02 08:27:33;;;;;;;7.85;4.35;;;;;;;;;;5025268;28;88867;-73
2022/01/02 08:29:59;;;;;;;10.38;4.32;;;;;;;;;;5022289;28;88239;-73
2022/01/02 08:32:26;;;;;;;8.88;3.90;;;;;;;;;;5022326;28;89222;-72
2022/01/02 08:34:52;;;;;;;9.63;4.45;;;;;;;;;;5022465;28;89784;-73
2022/01/02 08:37:19;;;;;;;8.25;4.25;;;;;;;;;;5022569;28;88144;-73
2022/01/02 08:39:45;;;;;;;7.07;4.72;;;;;;;;;;5021942;28;89069;-73
2022/01/02 08:42:12;;;;;;;10.93;5.03;;;;;;;;;;5022392;28;88704;-73
2022/01/02 08:44:39;;;;;;;13.75;4.95;;;;;;;;;;5044625;27;88400;-72
2022/01/02 08:47:06;;;;;;;10.15;5.00;;;;;;;;;;5047495;27;89006;-72
2022/01/02 08:49:32;;;;;;;9.25;5.25;;;;;;;;;;5062372;27;87923;-72
2022/01/02 08:51:59;;;;;;;9.50;5.15;;;;;;;;;;5048161;27;89193;-72
2022/01/02 08:54:25;;;;;;;11.50;4.85;;;;;;;;;;5042305;28;89127;-72
2022/01/02 08:56:52;;;;;;;10.65;4.57;;;;;;;;;;5042615;28;87332;-72
2022/01/02 08:59:24;;;;;;;8.20;4.70;;;;;;;;;;5042209;28;88307;-71
2022/01/02 09:01:51;;;;;;;6.03;4.68;;;;;;;;;;5041909;28;89989;-73
2022/01/02 09:04:17;;;;;;;6.60;4.75;;;;;;;;;;5041465;28;88597;-72
2022/01/02 09:06:44;;;;;;;8.48;5.45;;;;;;;;;;5042069;28;89749;-71
2022/01/02 09:09:10;;;;;;;8.52;4.35;;;;;;;;;;5044855;28;89099;-71
2022/01/02 09:11:36;;;;;;;6.90;4.75;;;;;;;;;;5042107;28;87721;-71
2022/01/02 09:14:03;;;;;;;9.45;4.72;;;;;;;;;;5041400;28;88641;-71
2022/01/02 09:16:30;;;;;;;12.07;4.90;;;;;;;;;;5040894;27;88247;-72
2022/01/02 09:18:56;;;;;;;9.18;5.00;;;;;;;;;;5029456;27;92812;-72
2022/01/02 09:21:22;;;;;;;12.82;5.60;;;;;;;;;;5062170;27;88523;-74
2022/01/02 09:23:49;;;;;;;10.95;5.30;;;;;;;;;;5062038;27;88085;-72
2022/01/02 09:26:15;;;;;;;11.68;5.13;;;;;;;;;;5062511;27;88091;-72
2022/01/02 09:28:41;;;;;;;8.82;5.80;;;;;;;;;;5061248;27;89921;-74
2022/01/02 09:31:08;;;;;;;7.90;6.22;;;;;;;;;;5064339;27;88206;-73
2022/01/02 09:33:34;;;;;;;10.38;5.47;;;;;;;;;;5062117;27;88457;-72
2022/01/02 09:36:01;;;;;;;6.45;5.80;;;;;;;;;;5061791;27;87840;-71
2022/01/02 09:38:27;;;;;;;11.27;6.05;;;;;;;;;;5061499;27;88966;-72
2022/01/02 09:40:53;;;;;;;9.02;5.72;;;;;;;;;;5061809;27;89212;-73
2022/01/02 09:43:19;;;;;;;9.90;5.80;;;;;;;;;;5061702;27;88190;-71
2022/01/02 09:45:47;;;;;;;13.95;6.25;;;;;;;;;;5059600;27;88040;-71
2022/01/02 09:48:14;;;;;;;7.15;6.20;;;;;;;;;;5041061;28;89474;-71
2022/01/02 09:50:41;;;;;;;8.57;5.82;;;;;;;;;;5041228;28;88276;-73
2022/01/02 09:53:07;;;;;;;13.95;6.18;;;;;;;;;;5043649;28;89381;-71
2022/01/02 09:55:34;;;;;;;7.22;6.50;;;;;;;;;;5041192;28;88297;-70
2022/01/02 09:58:03;;;;;;;7.45;6.00;;;;;;;;;;5041393;28;88511;-71
2022/01/02 10:00:29;;;;;;;13.77;5.95;;;;;;;;;;5041383;28;88764;-72
2022/01/02 10:03:03;;;;;;;7.47;5.75;;;;;;;;;;5040881;28;88629;-71
2022/01/02 10:05:48;;;;;;;9.50;6.38;;;;;;;;;;5040455;28;88853;-72
2022/01/02 10:08:22;;;;;;;11.43;6.68;;;;;;;;;;5041223;28;88994;-72
2022/01/02 10:10:56;;;;;;;8.65;6.35;;;;;;;;;;5041570;28;88565;-72
2022/01/02 10:13:42;;;;;;;11.98;6.63;;;;;;;;;;5041195;28;87931;-71
2022/01/02 10:16:20;;;;;;;8.88;6.25;;;;;;;;;;5043291;28;89282;-71
2022/01/02 10:18:48;;;;;;;7.57;5.55;;;;;;;;;;5040584;28;88849;-71
2022/01/02 10:21:27;;;;;;;11.10;6.53;;;;;;;;;;5040947;28;89237;-71
2022/01/02 10:24:10;;;;;;;12.73;6.88;;;;;;;;;;5023320;28;87872;-71
2022/01/02 10:26:36;;;;;;;10.05;6.30;;;;;;;;;;5040941;28;89062;-71
2022/01/02 10:29:12;;;;;;;10.32;5.97;;;;;;;;;;5040611;28;89339;-71
2022/01/02 10:31:39;;;;;;;11.23;6.00;;;;;;;;;;5040787;28;87897;-72
2022/01/02 10:34:06;;;;;;;10.55;6.10;;;;;;;;;;5040750;28;88993;-71
2022/01/02 10:36:34;;;;;;;7.07;6.18;;;;;;;;;;5037111;28;87504;-71
2022/01/02 10:39:05;;;;;;;7.15;5.70;;;;;;;;;;5023406;28;89082;-70
2022/01/02 10:41:33;;;;;;;10.60;6.10;;;;;;;;;;5020079;28;88301;-70
2022/01/02 10:44:19;;;;;;;15.13;6.45;;;;;;;;;;5019611;28;88734;-70
2022/01/02 10:47:04;;;;;;;14.23;6.40;;;;;;;;;;5020474;28;89906;-71
2022/01/02 10:49:50;;;;;;;16.45;6.47;;;;;;;;;;5020176;28;88976;-70
2022/01/02 10:52:17;;;;;;;13.23;6.53;;;;;;;;;;5020480;28;88026;-70
2022/01/02 10:54:44;;;;;;;9.82;6.78;;;;;;;;;;5020369;28;88981;-70
2022/01/02 10:57:12;;;;;;;12.60;6.38;;;;;;;;;;5020370;28;88584;-71
2022/01/02 10:59:39;;;;;;;15.15;6.32;;;;;;;;;;5022853;28;88148;-71
2022/01/02 11:02:08;;;;;;;9.85;6.28;;;;;;;;;;5020606;28;88637;-70
2022/01/02 11:04:34;;;;;;;13.10;6.35;;;;;;;;;;5020092;28;87883;-70
2022/01/02 11:07:02;;;;;;;12.60;6.18;;;;;;;;;;5020215;28;89608;-70
2022/01/02 11:09:29;;;;;;;11.27;6.30;;;;;;;;;;5019562;28;89993;-70
2022/01/02 11:11:56;;;;;;;12.60;6.55;;;;;;;;;;5020177;28;88675;-70
2022/01/02 11:14:23;;;;;;;17.02;7.05;;;;;;;;;;5019561;28;89013;-70
2022/01/02 11:16:49;;;;;;;13.13;7.03;;;;;;;;;;5030066;27;89754;-71
2022/01/02 11:19:16;;;;;;;17.80;6.88;;;;;;;;;;5040189;28;88171;-71
2022/01/02 11:21:44;;;;;;;12.95;6.75;;;;;;;;;;5043079;28;89104;-71
2022/01/02 11:24:13;;;;;;;14.48;6.53;;;;;;;;;;5040106;28;88020;-71
2022/01/02 11:26:46;;;;;;;12.93;7.13;;;;;;;;;;5040247;28;89189;-72
2022/01/02 11:29:13;;;;;;;8.98;6.20;;;;;;;;;;5039869;28;89180;-71
2022/01/02 11:31:43;;;;;;;13.90;6.45;;;;;;;;;;5040188;28;88636;-72
2022/01/02 11:34:26;;;;;;;14.05;6.57;;;;;;;;;;5039440;28;88980;-71
2022/01/02 11:37:13;;;;;;;17.73;7.07;;;;;;;;;;5039643;28;88867;-71
2022/01/02 11:39:49;;;;;;;12.20;6.28;;;;;;;;;;5039911;28;87748;-71
2022/01/02 11:42:34;;;;;;;12.05;5.90;;;;;;;;;;5040072;28;88578;-72
2022/01/02 11:45:02;;;;;;;13.35;6.53;;;;;;;;;;5042711;28;89821;-72
2022/01/02 11:47:40;;;;;;;10.75;6.38;;;;;;;;;;5036895;28;89373;-72
2022/01/02 11:50:27;;;;;;;16.73;6.50;;;;;;;;;;5028205;28;89501;-73
2022/01/02 11:53:09;;;;;;;10.00;5.43;;;;;;;;;;5040383;27;88265;-70
2022/01/02 11:55:37;;;;;;;13.57;6.22;;;;;;;;;;5043110;28;88895;-72
2022/01/02 11:58:03;;;;;;;40.60;22.63;;;;;;;;;;5042942;28;89293;-72
2022/01/02 12:00:43;;;;;;;14.80;5.90;;;;;;;;;;5041948;28;89043;-71
2022/01/02 12:03:29;;;;;;;17.98;5.63;;;;;;;;;;5042928;28;89696;-72
2022/01/02 12:06:16;;;;;;;10.50;5.07;;;;;;;;;;5043075;28;89619;-71
2022/01/02 12:08:42;;;;;;;14.77;5.53;;;;;;;;;;5045635;28;89105;-71
2022/01/02 12:11:35;;;;;;;14.85;5.22;;;;;;;;;;5042850;28;88077;-70
2022/01/02 12:14:20;;;;;;;14.82;5.28;;;;;;;;;;5043089;28;88097;-70
2022/01/02 12:16:51;;;;;;;16.38;4.97;;;;;;;;;;5034625;28;88723;-71
2022/01/02 12:19:18;;;;;;;10.13;4.57;;;;;;;;;;5027951;28;88497;-70
2022/01/02 12:22:03;;;;;;;16.65;5.28;;;;;;;;;;5030510;28;87895;-71
2022/01/02 12:24:29;;;;;;;16.67;3.63;;;;;;;;;;5022668;28;89071;-70
2022/01/02 12:27:06;;;;;;;17.33;4.05;;;;;;;;;;5021643;28;90201;-71
2022/01/02 12:29:32;;;;;;;21.48;4.65;;;;;;;;;;5021924;28;88663;-71
2022/01/02 12:32:00;;;;;;;16.17;3.53;;;;;;;;;;5025575;28;89378;-71
2022/01/02 12:34:27;;;;;;;13.20;4.30;;;;;;;;;;5022588;28;87789;-71
2022/01/02 12:36:55;;;;;;;12.75;3.90;;;;;;;;;;5022383;28;88942;-71
2022/01/02 12:39:29;;;;;;;14.85;3.20;;;;;;;;;;5022442;28;88848;-71
2022/01/02 12:42:06;;;;;;;10.57;2.55;;;;;;;;;;5021915;28;88756;-72
2022/01/02 12:44:34;;;;;;;9.80;3.00;;;;;;;;;;5022724;28;89251;-71
2022/01/02 12:47:02;;;;;;;9.40;3.28;;;;;;;;;;5022476;28;88818;-71
2022/01/02 12:49:33;;;;;;;9.25;3.10;;;;;;;;;;5022382;28;88129;-71
2022/01/02 12:52:10;;;;;;;11.20;3.50;;;;;;;;;;5021934;28;88935;-71
2022/01/02 12:54:39;;;;;;;7.43;3.03;;;;;;;;;;5024559;28;89178;-72
2022/01/02 12:57:08;;;;;;;11.25;3.28;;;;;;;;;;5021991;28;89520;-72
2022/01/02 12:59:39;;;;;;;10.95;3.03;;;;;;;;;;5022146;28;89205;-72
2022/01/02 13:02:09;;;;;;;8.93;3.00;;;;;;;;;;5021969;28;88346;-72
2022/01/02 13:04:46;;;;;;;11.02;2.80;;;;;;;;;;5021597;28;89095;-72
2022/01/02 13:07:14;;;;;;;11.95;2.65;;;;;;;;;;5021785;28;89024;-72
2022/01/02 13:09:47;;;;;;;9.13;2.42;;;;;;;;;;5022606;28;88300;-71
2022/01/02 13:12:13;;;;;;;9.95;2.50;;;;;;;;;;5021943;28;88324;-73
2022/01/02 13:14:42;;;;;;;9.20;2.70;;;;;;;;;;5024770;28;89358;-71
2022/01/02 13:17:10;;;;;;;9.13;2.30;;;;;;;;;;5021025;28;88811;-71
2022/01/02 13:19:38;;;;;;;6.35;2.20;;;;;;;;;;5021402;28;88304;-71
2022/01/02 13:22:06;;;;;;;14.15;2.80;;;;;;;;;;5021902;28;88266;-71
2022/01/02 13:24:34;;;;;;;4.13;1.83;;;;;;;;;;5021743;28;89046;-71
2022/01/02 13:27:02;;;;;;;7.15;2.25;;;;;;;;;;5021667;28;89162;-71
2022/01/02 13:29:29;;;;;;;8.07;2.25;;;;;;;;;;5021707;28;87838;-72
2022/01/02 13:31:56;;;;;;;10.75;2.50;;;;;;;;;;5021211;28;87815;-72
2022/01/02 13:34:23;;;;;;;10.27;2.38;;;;;;;;;;5022231;28;87963;-72
2022/01/02 13:36:57;;;;;;;12.57;2.65;;;;;;;;;;5024600;28;88346;-71
2022/01/02 13:39:42;;;;;;;5.53;1.95;;;;;;;;;;5021770;28;89602;-73
2022/01/02 13:42:09;;;;;;;9.75;1.95;;;;;;;;;;5020958;28;88587;-71
2022/01/02 13:44:39;;;;;;;10.50;2.35;;;;;;;;;;5028024;28;89752;-72
2022/01/02 13:47:06;;;;;;;6.60;2.22;;;;;;;;;;5030370;28;88235;-72
2022/01/02 13:49:41;;;;;;;13.82;3.05;;;;;;;;;;5030548;28;88253;-72
2022/01/02 13:52:07;;;;;;;15.75;2.97;;;;;;;;;;5030448;28;87946;-72
2022/01/02 13:54:33;;;;;;;16.23;2.75;;;;;;;;;;5011545;28;90241;-72
2022/01/02 13:57:01;;;;;;;13.80;2.50;;;;;;;;;;5033342;27;87900;-71
2022/01/02 13:59:27;;;;;;;14.48;2.90;;;;;;;;;;5037445;27;88543;-72
2022/01/02 14:01:54;;;;;;;15.93;3.22;;;;;;;;;;5031026;28;88100;-72
2022/01/02 14:04:20;;;;;;;14.75;3.08;;;;;;;;;;5029212;28;89014;-73
2022/01/02 14:06:47;;;;;;;12.52;3.38;;;;;;;;;;5030594;28;89033;-72
2022/01/02 14:09:14;;;;;;;15.05;3.33;;;;;;;;;;5035734;28;88240;-71
2022/01/02 14:11:41;;;;;;;14.23;3.28;;;;;;;;;;5023187;28;88918;-71
2022/01/02 14:14:17;;;;;;;15.05;3.80;;;;;;;;;;5040135;28;88639;-72
2022/01/02 14:19:46;;;;;;;12.48;3.92;;;;;;;;;;5041160;28;89050;-72
2022/01/02 14:22:14;;;;;;;14.20;2.95;;;;;;;;;;5043595;28;89172;-72
2022/01/02 14:24:40;;;;;;;13.68;2.92;;;;;;;;;;5041461;28;88640;-73
2022/01/02 14:27:08;;;;;;;14.65;2.92;;;;;;;;;;5041170;28;88507;-72
2022/01/02 14:29:35;;;;;;;11.95;3.10;;;;;;;;;;5040975;28;88210;-72
2022/01/02 14:32:02;;;;;;;12.65;3.40;;;;;;;;;;5037400;28;89133;-72
2022/01/02 14:34:28;;;;;;;18.08;3.80;;;;;;;;;;5040032;28;88923;-73
2022/01/02 14:36:55;;;;;;;13.80;3.33;;;;;;;;;;5040488;28;88288;-72
2022/01/02 14:39:22;;;;;;;14.43;5.05;;;;;;;;;;5040896;28;89130;-72
2022/01/02 14:41:48;;;;;;;18.42;3.33;;;;;;;;;;5040480;28;89077;-72
2022/01/02 14:44:15;;;;;;;12.05;3.83;;;;;;;;;;5043622;28;88294;-73
2022/01/02 14:46:42;;;;;;;14.23;4.07;;;;;;;;;;5040272;28;89352;-72
2022/01/02 14:49:09;;;;;;;18.08;4.25;;;;;;;;;;5040680;28;88204;-74